Time;durP1;ratioP1;P1;durP2;ratioP2;P2;SDS_P1;SDS_P2;PMS_P1;PMS_P2;Temp;Humidity;BMP_temperature;BMP_pressure;BME280_temperature;BME280_humidity;BME280_pressure;Samples;Min_cycle;Max_cycle;Signal;HPM_P1;HPM_P2
2022/06/15 00:00:45;;;;;;;0.55;0.40;;;10.00;99.90;;;;;;4851373;29;20038;-85
2022/06/15 00:03:12;;;;;;;0.10;0.10;;;10.00;99.90;;;;;;4884482;29;20044;-85
2022/06/15 00:05:39;;;;;;;0.45;0.38;;;10.00;99.90;;;;;;4884395;29;20045;-85
2022/06/15 00:08:05;;;;;;;0.10;0.10;;;10.00;99.90;;;;;;4900470;29;20048;-85
2022/06/15 00:10:32;;;;;;;0.45;0.45;;;9.90;99.90;;;;;;4884593;29;20051;-85
2022/06/15 00:12:58;;;;;;;0.10;0.10;;;10.70;99.90;;;;;;4877591;29;20059;-85
2022/06/15 00:15:24;;;;;;;0.22;0.22;;;9.80;99.90;;;;;;4865676;29;20048;-85
2022/06/15 00:17:50;;;;;;;0.10;0.10;;;9.80;99.90;;;;;;4850429;29;20503;-84
2022/06/15 00:20:15;;;;;;;0.10;0.10;;;9.70;99.90;;;;;;4865588;29;20100;-84
2022/06/15 00:22:41;;;;;;;1.75;0.50;;;9.90;99.90;;;;;;4881002;29;20099;-84
2022/06/15 00:25:09;;;;;;;1.08;0.20;;;9.70;99.90;;;;;;4865461;29;20049;-84
2022/06/15 00:27:35;;;;;;;0.10;0.10;;;9.60;99.90;;;;;;4881169;29;20517;-85
2022/06/15 00:30:01;;;;;;;0.85;0.38;;;9.60;99.90;;;;;;4881102;29;20112;-84
2022/06/15 00:32:26;;;;;;;1.67;0.63;;;9.70;99.90;;;;;;4881047;29;20049;-84
2022/06/15 00:34:52;;;;;;;0.00;0.00;;;9.70;99.90;;;;;;4880796;29;20045;-84
2022/06/15 00:37:18;;;;;;;0.10;0.10;;;9.70;99.90;;;;;;4864838;29;20049;-84
2022/06/15 00:39:43;;;;;;;0.30;0.28;;;9.70;99.90;;;;;;4865456;29;20081;-84
2022/06/15 00:42:12;;;;;;;0.10;0.10;;;9.60;99.90;;;;;;4880671;29;20045;-84
2022/06/15 00:44:39;;;;;;;0.00;0.00;;;9.60;99.90;;;;;;4880856;29;20407;-84
2022/06/15 00:47:16;;;;;;;0.20;0.20;;;9.50;99.90;;;;;;4880567;29;20448;-84
2022/06/15 00:50:17;;;;;;;0.20;0.20;;;9.50;99.90;;;;;;4865075;29;20053;-85
2022/06/15 00:52:55;;;;;;;0.10;0.10;;;9.50;99.90;;;;;;4864932;29;20041;-85
2022/06/15 00:55:28;;;;;;;0.22;0.22;;;9.50;99.90;;;;;;4880709;29;20128;-85
2022/06/15 00:57:54;;;;;;;0.00;0.00;;;9.50;99.90;;;;;;4865047;29;20045;-85
2022/06/15 01:00:21;;;;;;;0.65;0.65;;;9.50;99.90;;;;;;4880312;29;20128;-85
2022/06/15 01:02:47;;;;;;;0.00;0.00;;;9.40;99.90;;;;;;4880127;29;20041;-85
2022/06/15 01:05:21;;;;;;;0.25;0.25;;;9.40;99.90;;;;;;4880211;29;20052;-85
2022/06/15 01:08:17;;;;;;;0.10;0.10;;;9.40;99.90;;;;;;4880617;29;20096;-83
2022/06/15 01:10:58;;;;;;;0.30;0.30;;;;;;;;;;4846515;29;20454;-83
2022/06/15 01:13:39;;;;;;;0.00;0.00;;;9.30;99.90;;;;;;4880726;29;20063;-84
2022/06/15 01:16:21;;;;;;;0.05;0.05;;;9.40;99.90;;;;;;4883213;29;20132;-84
2022/06/15 01:19:08;;;;;;;0.10;0.10;;;9.30;99.90;;;;;;4898676;29;20649;-84
2022/06/15 01:21:50;;;;;;;0.43;0.43;;;9.30;99.90;;;;;;4896021;29;20040;-83
2022/06/15 01:24:24;;;;;;;2.65;1.10;;;9.30;99.90;;;;;;4874266;29;20107;-85
2022/06/15 01:27:24;;;;;;;0.10;0.10;;;9.30;99.90;;;;;;4879793;29;20041;-85
2022/06/15 01:30:10;;;;;;;0.10;0.10;;;9.20;99.90;;;;;;4880041;29;20048;-85
2022/06/15 01:33:06;;;;;;;0.10;0.10;;;9.20;99.90;;;;;;4864335;29;20104;-85
2022/06/15 01:36:06;;;;;;;0.10;0.10;;;9.20;99.90;;;;;;4879715;29;20047;-84
2022/06/15 01:38:46;;;;;;;0.75;0.38;;;9.20;99.90;;;;;;4879626;29;20048;-85
2022/06/15 01:41:14;;;;;;;0.90;0.45;;;9.20;99.90;;;;;;4879696;29;20045;-84
2022/06/15 01:43:49;;;;;;;0.00;0.00;;;9.10;99.90;;;;;;4864058;29;20056;-83
2022/06/15 01:46:15;;;;;;;0.28;0.28;;;9.10;99.90;;;;;;4879868;29;20051;-83
2022/06/15 01:48:42;;;;;;;0.00;0.00;;;9.00;99.90;;;;;;4878689;29;20178;-83
2022/06/15 01:51:17;;;;;;;0.05;0.05;;;9.10;99.90;;;;;;4864360;29;20049;-84
2022/06/15 01:53:52;;;;;;;0.10;0.10;;;9.10;99.90;;;;;;4863903;29;20045;-83
2022/06/15 01:56:35;;;;;;;0.03;0.03;;;9.00;99.90;;;;;;4879450;29;20049;-84
2022/06/15 01:59:17;;;;;;;0.10;0.10;;;9.00;99.90;;;;;;4879214;29;20047;-84
2022/06/15 02:01:54;;;;;;;0.10;0.10;;;9.00;99.90;;;;;;4879335;29;20044;-84
2022/06/15 02:04:39;;;;;;;0.10;0.10;;;9.10;99.90;;;;;;4879300;29;20463;-84
2022/06/15 02:07:07;;;;;;;0.10;0.10;;;9.00;99.90;;;;;;4879478;29;20428;-84
2022/06/15 02:09:57;;;;;;;0.10;0.10;;;9.10;99.90;;;;;;4863852;29;20049;-84
2022/06/15 02:13:05;;;;;;;0.38;0.38;;;9.00;99.90;;;;;;4880957;29;20045;-84
2022/06/15 02:15:33;;;;;;;0.30;0.25;;;9.10;99.90;;;;;;4879490;29;20491;-83
2022/06/15 02:18:04;;;;;;;0.00;0.00;;;9.10;99.90;;;;;;4866769;29;20040;-83
2022/06/15 02:20:33;;;;;;;0.10;0.10;;;9.10;99.90;;;;;;4897580;29;20045;-83
2022/06/15 02:23:02;;;;;;;0.00;0.00;;;9.10;99.90;;;;;;4880497;29;20052;-83
2022/06/15 02:25:33;;;;;;;0.70;0.50;;;9.10;99.90;;;;;;4878449;29;20049;-83
2022/06/15 02:28:01;;;;;;;0.10;0.10;;;9.10;99.90;;;;;;4878803;29;20511;-83
2022/06/15 02:30:29;;;;;;;0.10;0.10;;;9.10;99.90;;;;;;4878823;29;20084;-85
2022/06/15 02:32:55;;;;;;;0.03;0.03;;;9.10;99.90;;;;;;4878700;29;20049;-85
2022/06/15 02:35:22;;;;;;;1.48;0.77;;;9.20;99.90;;;;;;4848017;29;20131;-85
2022/06/15 02:37:50;;;;;;;0.30;0.30;;;9.20;99.90;;;;;;4863255;29;20140;-85
2022/06/15 02:40:19;;;;;;;0.00;0.00;;;9.30;99.90;;;;;;4878876;29;20056;-85
2022/06/15 02:42:46;;;;;;;0.28;0.28;;;9.40;99.90;;;;;;4863165;29;20049;-85
2022/06/15 02:45:28;;;;;;;0.15;0.15;;;9.30;99.90;;;;;;4863376;29;20060;-85
2022/06/15 02:47:54;;;;;;;0.05;0.05;;;9.40;99.90;;;;;;4863142;29;20041;-84
2022/06/15 02:50:22;;;;;;;0.10;0.10;;;9.50;99.90;;;;;;4878794;29;20049;-84
2022/06/15 02:53:02;;;;;;;0.38;0.38;;;9.60;99.90;;;;;;4863098;29;20048;-84
2022/06/15 02:55:29;;;;;;;0.10;0.10;;;9.70;99.90;;;;;;4878437;29;20523;-85
2022/06/15 02:58:09;;;;;;;0.00;0.00;;;9.70;99.90;;;;;;4878676;29;20045;-85
2022/06/15 03:00:36;;;;;;;0.28;0.28;;;9.70;99.90;;;;;;4862794;29;20522;-85
2022/06/15 03:03:02;;;;;;;0.00;0.00;;;9.80;99.90;;;;;;4863249;29;20045;-85
2022/06/15 03:05:28;;;;;;;0.00;0.00;;;9.80;99.90;;;;;;4878422;29;20045;-84
2022/06/15 03:07:54;;;;;;;0.10;0.10;;;9.80;99.90;;;;;;4863203;29;20049;-85
2022/06/15 03:10:19;;;;;;;0.10;0.10;;;9.80;99.90;;;;;;4878350;29;20495;-84
2022/06/15 03:12:45;;;;;;;0.13;0.13;;;9.90;99.90;;;;;;4867266;29;20079;-85
2022/06/15 03:15:11;;;;;;;0.00;0.00;;;9.90;99.90;;;;;;4881640;29;20049;-84
2022/06/15 03:17:37;;;;;;;0.20;0.20;;;9.90;99.90;;;;;;4896962;29;20674;-84
2022/06/15 03:20:03;;;;;;;0.10;0.10;;;9.80;99.90;;;;;;4896981;29;20043;-84
2022/06/15 03:22:35;;;;;;;0.20;0.20;;;9.90;99.90;;;;;;4863441;29;20079;-84
2022/06/15 03:25:01;;;;;;;0.10;0.10;;;9.90;99.90;;;;;;4882543;29;20049;-85
2022/06/15 03:27:26;;;;;;;0.20;0.20;;;9.90;99.90;;;;;;4862816;29;20056;-85
2022/06/15 03:29:53;;;;;;;0.20;0.20;;;9.90;99.90;;;;;;4847567;29;20049;-84
2022/06/15 03:32:19;;;;;;;0.30;0.30;;;9.90;99.90;;;;;;4862881;29;20049;-85
2022/06/15 03:34:45;;;;;;;0.10;0.10;;;9.90;99.90;;;;;;4878088;29;20567;-84
2022/06/15 03:37:11;;;;;;;0.43;0.25;;;9.90;99.90;;;;;;4862875;29;20093;-85
2022/06/15 03:39:38;;;;;;;0.10;0.10;;;10.00;99.90;;;;;;4878070;29;20045;-85
2022/06/15 03:42:22;;;;;;;0.00;0.00;;;10.20;99.90;;;;;;4878406;29;20067;-85
2022/06/15 03:44:49;;;;;;;0.10;0.10;;;10.20;99.90;;;;;;4862796;29;20049;-84
2022/06/15 03:47:17;;;;;;;0.00;0.00;;;10.30;99.90;;;;;;4862591;29;20080;-84
2022/06/15 03:49:53;;;;;;;0.03;0.03;;;10.30;99.90;;;;;;4877956;29;20049;-83
2022/06/15 03:52:20;;;;;;;;;;;10.50;99.90;;;;;;4862877;29;20041;-84
2022/06/15 03:54:46;;;;;;;0.17;0.17;;;10.60;99.90;;;;;;4878032;29;20421;-85
2022/06/15 03:57:13;;;;;;;0.10;0.10;;;10.60;99.90;;;;;;4862551;29;20081;-85
2022/06/15 03:59:40;;;;;;;4.35;0.77;;;10.80;99.90;;;;;;4877907;29;20506;-85
2022/06/15 04:02:06;;;;;;;0.13;0.13;;;10.90;99.90;;;;;;4862809;29;20045;-85
2022/06/15 04:04:32;;;;;;;0.00;0.00;;;11.00;99.90;;;;;;4847008;29;20480;-84
2022/06/15 04:06:59;;;;;;;0.28;0.28;;;11.10;99.90;;;;;;4877887;29;20053;-85
2022/06/15 04:09:26;;;;;;;0.40;0.25;;;11.20;99.90;;;;;;4877845;29;20090;-85
2022/06/15 04:11:58;;;;;;;0.10;0.10;;;11.30;99.90;;;;;;4863129;29;20049;-85
2022/06/15 04:14:25;;;;;;;0.00;0.00;;;11.30;99.90;;;;;;4898471;29;20056;-85
2022/06/15 04:16:54;;;;;;;0.13;0.10;;;11.40;99.90;;;;;;4884267;29;20037;-85
2022/06/15 04:19:29;;;;;;;0.10;0.10;;;11.40;99.90;;;;;;4884419;29;20123;-85
2022/06/15 04:21:55;;;;;;;0.20;0.05;;;11.50;99.90;;;;;;4887311;29;20057;-85
2022/06/15 04:24:22;;;;;;;0.00;0.00;;;11.50;99.90;;;;;;4865294;29;20085;-85
2022/06/15 04:26:49;;;;;;;0.25;0.25;;;11.60;99.90;;;;;;4880949;29;20049;-84
2022/06/15 04:29:16;;;;;;;0.45;0.45;;;11.60;99.90;;;;;;4881240;29;20048;-84
2022/06/15 04:31:42;;;;;;;0.30;0.30;;;11.80;99.90;;;;;;4865438;29;20047;-84
2022/06/15 04:34:09;;;;;;;0.40;0.40;;;11.80;99.90;;;;;;4880789;29;20044;-84
2022/06/15 04:36:36;;;;;;;0.10;0.10;;;11.80;99.90;;;;;;4850004;29;20047;-84
2022/06/15 04:39:02;;;;;;;0.10;0.10;;;11.90;99.90;;;;;;4880666;29;20045;-84
2022/06/15 04:41:28;;;;;;;0.55;0.32;;;11.90;99.90;;;;;;4865490;29;20113;-84
2022/06/15 04:43:54;;;;;;;0.00;0.00;;;11.90;99.90;;;;;;4865532;29;20053;-85
2022/06/15 04:46:20;;;;;;;0.57;0.40;;;12.00;99.90;;;;;;4880895;29;20045;-85
2022/06/15 04:48:46;;;;;;;0.43;0.43;;;12.00;99.90;;;;;;4865104;29;20049;-85
2022/06/15 04:51:16;;;;;;;1.27;0.32;;;12.10;99.90;;;;;;4865299;29;20045;-85
2022/06/15 04:53:42;;;;;;;0.13;0.13;;;12.10;99.90;;;;;;4880433;29;20437;-85
2022/06/15 04:56:08;;;;;;;0.40;0.40;;;12.20;99.90;;;;;;4850393;29;20052;-85
2022/06/15 04:58:34;;;;;;;0.10;0.10;;;12.30;99.90;;;;;;4865116;29;20076;-85
2022/06/15 05:01:01;;;;;;;0.38;0.38;;;12.50;99.90;;;;;;4880580;29;20037;-85
2022/06/15 05:03:26;;;;;;;0.00;0.00;;;12.50;99.90;;;;;;4880373;29;20052;-85
2022/06/15 05:05:58;;;;;;;0.03;0.03;;;12.60;99.90;;;;;;4865080;29;20049;-85
2022/06/15 05:08:24;;;;;;;0.20;0.20;;;12.60;99.90;;;;;;4849475;29;20048;-86
2022/06/15 05:10:50;;;;;;;0.10;0.10;;;12.70;99.90;;;;;;4880651;29;20096;-87
2022/06/15 05:13:16;;;;;;;0.88;0.20;;;13.00;99.90;;;;;;4888589;29;20061;-87
2022/06/15 05:15:41;;;;;;;0.40;0.40;;;13.00;99.90;;;;;;4899105;29;20403;-86
2022/06/15 05:18:08;;;;;;;0.00;0.00;;;13.20;99.90;;;;;;4866541;29;20140;-87
2022/06/15 05:20:41;;;;;;;0.10;0.10;;;13.20;99.90;;;;;;4863715;29;20044;-86
2022/06/15 05:23:10;;;;;;;0.52;0.50;;;13.30;99.90;;;;;;4864465;29;20056;-87
2022/06/15 05:25:37;;;;;;;0.65;0.45;;;13.40;99.90;;;;;;4864434;29;20052;-87
2022/06/15 05:28:05;;;;;;;0.10;0.10;;;13.70;99.90;;;;;;4864672;29;20045;-87
2022/06/15 05:30:30;;;;;;;0.20;0.20;;;14.10;99.90;;;;;;4864984;29;20100;-87
2022/06/15 05:32:56;;;;;;;0.20;0.20;;;14.60;99.90;;;;;;4864378;29;20049;-87
2022/06/15 05:35:22;;;;;;;0.40;0.40;;;14.70;99.90;;;;;;4864337;29;20076;-86
2022/06/15 05:37:47;;;;;;;0.00;0.00;;;14.60;99.90;;;;;;4864295;29;20045;-86
2022/06/15 05:40:13;;;;;;;0.40;0.40;;;14.50;99.90;;;;;;4864171;29;20082;-87
2022/06/15 05:42:39;;;;;;;0.00;0.00;;;15.40;99.90;;;;;;4864243;29;20044;-87
2022/06/15 05:45:06;;;;;;;0.13;0.13;;;16.10;99.90;;;;;;4864147;29;20072;-87
2022/06/15 05:47:32;;;;;;;0.10;0.10;;;16.90;99.90;;;;;;4864457;29;20136;-87
2022/06/15 05:49:59;;;;;;;0.20;0.20;;;17.90;99.90;;;;;;4864661;29;20136;-87
2022/06/15 05:52:24;;;;;;;0.05;0.05;;;18.90;99.90;;;;;;4879500;29;20104;-88
2022/06/15 05:54:50;;;;;;;0.00;0.00;;;19.90;99.90;;;;;;4863976;29;20430;-88
2022/06/15 05:57:19;;;;;;;0.10;0.10;;;20.50;99.90;;;;;;4864119;29;20040;-88
2022/06/15 05:59:46;;;;;;;0.10;0.10;;;21.00;99.90;;;;;;4863807;29;20049;-88
2022/06/15 06:02:12;;;;;;;0.00;0.00;;;21.30;99.90;;;;;;4879371;29;20053;-88
2022/06/15 06:04:38;;;;;;;3.17;1.05;;;22.10;99.90;;;;;;4879192;29;20053;-88
2022/06/15 06:07:04;;;;;;;0.65;0.43;;;22.60;99.90;;;;;;4863752;29;20045;-87
2022/06/15 06:09:31;;;;;;;0.82;0.82;;;23.10;99.90;;;;;;4879055;29;20059;-87
2022/06/15 06:11:57;;;;;;;0.47;0.35;;;23.80;99.70;;;;;;4863830;29;20053;-87
2022/06/15 06:14:23;;;;;;;0.22;0.20;;;23.90;99.90;;;;;;4880447;29;20060;-87
2022/06/15 06:16:49;;;;;;;0.28;0.28;;;24.30;98.90;;;;;;4897919;29;20047;-86
2022/06/15 06:19:15;;;;;;;0.20;0.20;;;24.70;96.90;;;;;;4866795;29;20395;-87
2022/06/15 06:21:43;;;;;;;0.17;0.17;;;24.90;99.90;;;;;;4853940;29;20448;-86
2022/06/15 06:24:09;;;;;;;0.08;0.08;;;24.80;96.50;;;;;;4864067;29;20048;-87
2022/06/15 06:26:35;;;;;;;0.10;0.10;;;25.00;95.30;;;;;;4863914;29;20052;-86
2022/06/15 06:29:01;;;;;;;0.20;0.20;;;25.20;94.40;;;;;;4848137;29;20040;-86
2022/06/15 06:31:27;;;;;;;0.95;0.20;;;25.60;94.30;;;;;;4878823;29;20507;-86
2022/06/15 06:33:53;;;;;;;0.35;0.35;;;25.80;92.30;;;;;;4847892;29;20049;-86
2022/06/15 06:36:33;;;;;;;0.30;0.30;;;25.90;91.90;;;;;;4878647;29;20097;-86
2022/06/15 06:39:01;;;;;;;0.10;0.10;;;26.20;90.70;;;;;;4879059;29;20392;-84
2022/06/15 06:41:28;;;;;;;0.17;0.17;;;26.40;90.50;;;;;;4863117;29;20452;-84
2022/06/15 06:43:55;;;;;;;0.20;0.20;;;26.60;91.00;;;;;;4878820;29;20045;-83
2022/06/15 06:46:21;;;;;;;0.10;0.10;;;26.50;90.20;;;;;;4863102;29;20488;-84
2022/06/15 06:48:47;;;;;;;0.75;0.63;;;26.70;90.30;;;;;;4878536;29;20056;-84
2022/06/15 06:51:13;;;;;;;0.10;0.10;;;27.10;90.90;;;;;;4847797;29;20048;-84
2022/06/15 06:53:39;;;;;;;0.28;0.15;;;27.40;90.60;;;;;;4862800;29;20045;-84
2022/06/15 06:56:08;;;;;;;0.10;0.10;;;27.80;88.20;;;;;;4863046;29;20048;-83
2022/06/15 06:58:34;;;;;;;0.00;0.00;;;28.20;86.00;;;;;;4878399;29;20123;-84
2022/06/15 07:01:00;;;;;;;0.43;0.40;;;28.10;84.60;;;;;;4862976;29;20048;-83
2022/06/15 07:03:26;;;;;;;0.10;0.10;;;28.20;84.70;;;;;;4878321;29;20045;-84
2022/06/15 07:05:58;;;;;;;1.35;0.25;;;28.50;82.10;;;;;;4832385;29;20041;-83
2022/06/15 07:08:23;;;;;;;0.52;0.52;;;28.40;83.90;;;;;;4878331;29;20044;-84
2022/06/15 07:10:49;;;;;;;0.10;0.10;;;29.00;84.40;;;;;;4832360;29;20044;-84
2022/06/15 07:13:15;;;;;;;0.10;0.10;;;29.30;80.60;;;;;;4870897;29;20088;-85
2022/06/15 07:15:40;;;;;;;0.20;0.20;;;29.70;77.10;;;;;;4881272;29;20092;-85
2022/06/15 07:18:06;;;;;;;0.32;0.32;;;30.10;79.80;;;;;;4850982;29;20084;-85
2022/06/15 07:20:32;;;;;;;0.10;0.10;;;30.30;78.00;;;;;;4861946;29;20049;-85
2022/06/15 07:22:58;;;;;;;0.20;0.20;;;30.30;75.90;;;;;;4878232;29;20052;-85
2022/06/15 07:25:24;;;;;;;0.00;0.00;;;30.40;73.40;;;;;;4859448;29;20046;-85
2022/06/15 07:27:50;;;;;;;0.10;0.10;;;30.40;75.70;;;;;;4859628;29;20049;-85
2022/06/15 07:30:20;;;;;;;1.15;0.57;;;30.50;74.40;;;;;;4859865;29;20057;-84
2022/06/15 07:32:46;;;;;;;0.10;0.10;;;30.10;73.90;;;;;;4859705;29;20383;-85
2022/06/15 07:35:21;;;;;;;0.20;0.20;;;30.60;74.10;;;;;;4859556;29;20109;-84
2022/06/15 07:37:48;;;;;;;0.38;0.38;;;30.50;73.10;;;;;;4859918;29;20041;-84
2022/06/15 07:40:15;;;;;;;0.10;0.10;;;29.30;73.90;;;;;;4844310;29;20045;-84
2022/06/15 07:42:41;;;;;;;0.30;0.30;;;27.90;73.00;;;;;;4859834;29;20108;-84
2022/06/15 07:45:09;;;;;;;0.22;0.22;;;27.10;74.50;;;;;;4844472;29;20084;-84
2022/06/15 07:50:19;;;;;;;0.10;0.10;;;26.00;80.20;;;;;;4881721;29;20558;-85
2022/06/15 07:52:50;;;;;;;0.10;0.10;;;25.80;83.30;;;;;;4850920;29;20124;-85
2022/06/15 07:55:26;;;;;;;0.30;0.30;;;26.00;83.00;;;;;;4866542;29;20061;-85
2022/06/15 07:57:52;;;;;;;0.32;0.28;;;26.20;84.90;;;;;;4866032;29;20053;-85
2022/06/15 08:00:20;;;;;;;0.90;0.90;;;27.10;85.80;;;;;;4866403;29;20045;-86
2022/06/15 08:02:47;;;;;;;0.10;0.10;;;28.70;82.50;;;;;;4866540;29;20384;-85
2022/06/15 08:05:12;;;;;;;0.10;0.10;;;29.60;80.20;;;;;;4881235;29;20052;-85
2022/06/15 08:07:39;;;;;;;0.28;0.28;;;30.30;77.90;;;;;;4850578;29;20048;-85
2022/06/15 08:10:05;;;;;;;0.80;0.22;;;29.70;76.80;;;;;;4881484;29;20457;-85
2022/06/15 08:12:32;;;;;;;0.00;0.00;;;29.10;75.70;;;;;;4868207;29;20048;-85
2022/06/15 08:15:00;;;;;;;0.00;0.00;;;28.20;78.70;;;;;;4899537;29;20099;-85
2022/06/15 08:17:41;;;;;;;0.10;0.10;;;27.60;78.70;;;;;;4899838;29;20052;-85
2022/06/15 08:20:14;;;;;;;0.10;0.10;;;27.00;79.70;;;;;;4884331;29;20047;-85
2022/06/15 08:22:44;;;;;;;0.20;0.20;;;26.40;80.60;;;;;;4865815;29;20480;-84
2022/06/15 08:25:14;;;;;;;0.00;0.00;;;26.60;79.80;;;;;;4880654;29;20049;-85
2022/06/15 08:27:40;;;;;;;0.10;0.10;;;27.70;78.10;;;;;;4880053;23;20184;-83
2022/06/15 08:30:10;;;;;;;0.10;0.10;;;28.80;76.60;;;;;;4883908;29;20092;-83
2022/06/15 08:32:36;;;;;;;0.10;0.10;;;29.90;77.50;;;;;;4883919;29;20037;-83
2022/06/15 08:35:03;;;;;;;0.30;0.30;;;30.50;75.20;;;;;;4883876;29;20044;-83
2022/06/15 08:37:29;;;;;;;0.28;0.22;;;30.80;72.30;;;;;;4881060;29;20040;-85
2022/06/15 08:39:55;;;;;;;0.40;0.40;;;30.80;72.40;;;;;;4896244;29;20041;-85
2022/06/15 08:42:48;;;;;;;0.00;0.00;;;31.00;72.50;;;;;;4881004;29;20127;-85
2022/06/15 08:45:17;;;;;;;0.20;0.20;;;30.90;71.60;;;;;;4896287;29;20047;-85
2022/06/15 08:48:20;;;;;;;0.10;0.10;;;31.40;70.20;;;;;;4896212;29;20048;-85
2022/06/15 08:51:11;;;;;;;0.15;0.15;;;31.40;70.60;;;;;;4896654;29;20136;-86
2022/06/15 08:54:01;;;;;;;0.20;0.20;;;31.60;69.60;;;;;;4896018;29;20045;-84
2022/06/15 08:56:39;;;;;;;0.20;0.20;;;31.80;69.10;;;;;;4896338;29;20048;-84
2022/06/15 08:59:27;;;;;;;0.05;0.05;;;32.10;68.40;;;;;;4895596;29;20036;-83
2022/06/15 09:02:08;;;;;;;0.57;0.28;;;32.00;68.30;;;;;;4898820;29;20041;-83
2022/06/15 09:04:50;;;;;;;0.25;0.25;;;32.00;67.90;;;;;;4882945;29;20041;-83
2022/06/15 09:07:16;;;;;;;0.32;0.32;;;32.70;69.00;;;;;;4896940;29;20147;-84
2022/06/15 09:10:01;;;;;;;0.20;0.20;;;33.50;68.20;;;;;;4894924;29;20081;-85
2022/06/15 09:12:53;;;;;;;0.80;0.55;;;34.20;68.30;;;;;;4888143;29;20037;-86
2022/06/15 09:15:42;;;;;;;0.20;0.20;;;34.40;64.10;;;;;;4885780;29;20132;-86
2022/06/15 09:18:14;;;;;;;0.10;0.10;;;34.30;66.00;;;;;;4884387;29;20373;-85
2022/06/15 09:21:07;;;;;;;0.45;0.45;;;34.80;66.90;;;;;;4867783;29;20052;-85
2022/06/15 09:24:21;;;;;;;0.20;0.20;;;35.60;61.10;;;;;;4890085;29;20040;-86
2022/06/15 09:27:04;;;;;;;0.20;0.20;;;35.70;61.20;;;;;;4869455;29;20044;-86
2022/06/15 09:29:59;;;;;;;0.10;0.10;;;36.00;63.20;;;;;;4877205;29;20471;-85
2022/06/15 09:32:35;;;;;;;0.10;0.10;;;36.10;60.80;;;;;;4885525;29;20397;-86
2022/06/15 09:35:26;;;;;;;0.00;0.00;;;35.50;57.80;;;;;;4894815;29;20044;-85
2022/06/15 09:37:54;;;;;;;0.20;0.20;;;34.90;60.30;;;;;;4887673;29;20040;-85
2022/06/15 09:40:20;;;;;;;0.10;0.10;;;33.60;61.50;;;;;;4891469;29;20384;-86
2022/06/15 09:42:51;;;;;;;0.10;0.10;;;31.90;62.60;;;;;;4885154;29;20040;-84
2022/06/15 09:45:19;;;;;;;0.10;0.10;;;31.40;63.30;;;;;;4884034;29;20360;-84
2022/06/15 09:47:57;;;;;;;0.10;0.10;;;31.00;63.80;;;;;;4909158;29;20072;-84
2022/06/15 09:50:29;;;;;;;0.13;0.13;;;30.20;64.60;;;;;;4906028;29;20059;-84
2022/06/15 09:53:23;;;;;;;1.02;1.02;;;29.50;64.50;;;;;;4890721;29;20464;-84
2022/06/15 09:55:53;;;;;;;0.15;0.15;;;28.30;65.20;;;;;;4888596;29;20055;-84
2022/06/15 09:58:23;;;;;;;0.22;0.22;;;27.40;67.80;;;;;;4892090;29;20045;-84
2022/06/15 10:00:49;;;;;;;0.30;0.30;;;27.00;67.70;;;;;;4893585;29;20075;-84
2022/06/15 10:03:32;;;;;;;0.43;0.43;;;27.40;67.50;;;;;;4873605;29;20052;-84
2022/06/15 10:06:18;;;;;;;0.00;0.00;;;27.20;68.50;;;;;;4896589;29;20049;-84
2022/06/15 10:08:43;;;;;;;0.10;0.10;;;27.50;70.60;;;;;;4896718;29;20048;-83
2022/06/15 10:11:18;;;;;;;0.20;0.20;;;29.10;71.20;;;;;;4896299;29;20059;-83
2022/06/15 10:13:46;;;;;;;0.10;0.10;;;29.70;69.10;;;;;;4897597;29;20088;-83
2022/06/15 10:16:15;;;;;;;0.68;0.65;;;30.80;68.50;;;;;;4898031;29;20037;-85
2022/06/15 10:18:46;;;;;;;0.20;0.20;;;30.90;67.80;;;;;;4897632;29;20041;-85
2022/06/15 10:21:15;;;;;;;0.00;0.00;;;30.60;65.60;;;;;;4881205;29;20048;-85
2022/06/15 10:24:26;;;;;;;0.20;0.20;;;29.70;65.50;;;;;;4893948;29;20125;-85
2022/06/15 10:27:28;;;;;;;4.18;1.08;;;28.50;69.30;;;;;;4825969;29;20145;-85
2022/06/15 10:30:08;;;;;;;0.30;0.30;;;28.40;69.60;;;;;;4875305;29;20052;-85
2022/06/15 10:32:39;;;;;;;0.75;0.32;;;28.20;71.50;;;;;;4863392;29;20049;-84
2022/06/15 10:35:17;;;;;;;0.10;0.10;;;29.30;69.80;;;;;;4878997;29;20132;-83
2022/06/15 10:37:56;;;;;;;0.30;0.30;;;30.40;68.20;;;;;;4863231;29;20048;-83
2022/06/15 10:40:34;;;;;;;2.10;0.20;;;31.70;67.40;;;;;;4863715;29;20112;-83
2022/06/15 10:43:03;;;;;;;0.52;0.52;;;32.60;63.00;;;;;;4878666;29;20041;-84
2022/06/15 10:45:37;;;;;;;0.08;0.08;;;33.10;64.00;;;;;;4883129;29;20075;-83
2022/06/15 10:48:15;;;;;;;0.10;0.10;;;33.10;60.60;;;;;;4895205;29;20079;-84
2022/06/15 10:51:03;;;;;;;0.20;0.20;;;33.10;64.70;;;;;;4897121;29;20491;-85
2022/06/15 10:53:42;;;;;;;0.30;0.20;;;32.00;63.80;;;;;;4882322;29;20036;-85
2022/06/15 11:02:28;;;;;;;0.00;0.00;;;29.20;64.70;;;;;;4896220;29;20403;-86
2022/06/15 11:05:19;;;;;;;0.10;0.10;;;29.20;67.10;;;;;;4895457;29;20040;-86
2022/06/15 11:07:58;;;;;;;0.00;0.00;;;30.20;67.00;;;;;;4883943;29;20384;-86
2022/06/15 11:10:46;;;;;;;0.10;0.10;;;30.10;63.80;;;;;;4896985;29;20068;-86
2022/06/15 11:13:16;;;;;;;0.17;0.17;;;29.10;66.10;;;;;;4880881;29;20107;-86
2022/06/15 11:18:37;;;;;;;3.25;0.43;;;27.40;70.60;;;;;;4896538;29;20052;-86
2022/06/15 11:21:14;;;;;;;0.10;0.10;;;26.90;71.10;;;;;;4891375;29;20040;-86
2022/06/15 11:23:47;;;;;;;0.32;0.32;;;26.70;69.60;;;;;;4878601;29;20052;-86
2022/06/15 11:29:30;;;;;;;0.15;0.08;;;28.60;70.30;;;;;;4901398;29;20095;-86
2022/06/15 11:32:03;;;;;;;0.08;0.08;;;29.20;67.90;;;;;;4871716;29;20045;-87
2022/06/15 11:34:34;;;;;;;0.10;0.10;;;29.40;68.00;;;;;;4901101;29;20043;-87
2022/06/15 11:37:13;;;;;;;0.17;0.17;;;29.60;68.40;;;;;;4890367;29;20041;-86
2022/06/15 11:39:57;;;;;;;0.15;0.15;;;30.40;68.20;;;;;;4885563;29;20052;-86
2022/06/15 11:42:24;;;;;;;0.13;0.13;;;31.70;65.90;;;;;;4882460;29;20049;-86
2022/06/15 11:44:51;;;;;;;3.72;0.88;;;33.00;64.50;;;;;;4891946;29;20049;-86
2022/06/15 11:47:25;;;;;;;0.20;0.20;;;33.20;64.50;;;;;;4866529;29;20049;-86
2022/06/15 11:50:13;;;;;;;0.20;0.20;;;32.40;63.80;;;;;;4883537;29;20616;-86
2022/06/15 11:52:57;;;;;;;0.20;0.20;;;31.50;65.30;;;;;;4895943;29;20045;-86
2022/06/15 11:55:45;;;;;;;0.45;0.40;;;31.10;63.60;;;;;;4878803;29;20076;-86
2022/06/15 11:58:29;;;;;;;0.68;0.45;;;30.70;65.20;;;;;;4900669;29;20040;-84
2022/06/15 12:01:05;;;;;;;0.10;0.10;;;29.80;63.50;;;;;;4896288;29;20045;-84
2022/06/15 12:03:43;;;;;;;0.20;0.20;;;28.90;66.60;;;;;;4914590;29;20385;-84
2022/06/15 12:06:08;;;;;;;0.15;0.15;;;28.70;67.80;;;;;;4913367;29;20055;-84
2022/06/15 12:08:51;;;;;;;0.30;0.30;;;29.50;67.00;;;;;;4915519;29;20044;-84
2022/06/15 12:14:25;;;;;;;0.00;0.00;;;31.80;65.50;;;;;;4897531;29;20045;-84
2022/06/15 12:17:09;;;;;;;0.10;0.10;;;32.10;63.70;;;;;;4899217;29;20539;-83
2022/06/15 12:20:13;;;;;;;0.10;0.10;;;32.10;62.80;;;;;;4893418;29;20392;-83
2022/06/15 12:23:16;;;;;;;0.38;0.32;;;32.20;63.80;;;;;;4881716;29;20128;-83
2022/06/15 12:25:50;;;;;;;0.10;0.10;;;32.70;65.20;;;;;;4891499;29;20063;-83
2022/06/15 12:28:44;;;;;;;0.10;0.10;;;32.20;61.20;;;;;;4894465;29;20063;-82
2022/06/15 12:31:34;;;;;;;0.10;0.10;;;30.60;62.00;;;;;;4881412;29;20488;-85
2022/06/15 12:34:09;;;;;;;0.10;0.10;;;29.00;65.10;;;;;;4881295;29;20132;-85
2022/06/15 12:36:35;;;;;;;1.02;0.57;;;28.00;67.40;;;;;;4877804;29;20041;-85
2022/06/15 12:39:28;;;;;;;0.08;0.08;;;27.40;66.60;;;;;;4865857;29;20052;-85
2022/06/15 12:42:10;;;;;;;0.20;0.20;;;26.90;67.50;;;;;;4890760;29;20085;-85
2022/06/15 12:44:55;;;;;;;0.38;0.38;;;26.60;69.30;;;;;;4899564;29;20048;-86
2022/06/15 12:47:24;;;;;;;0.35;0.30;;;26.10;69.40;;;;;;4927592;29;20036;-82
2022/06/15 12:50:17;;;;;;;1.65;0.32;;;25.70;69.20;;;;;;4918240;29;20483;-82
2022/06/15 12:52:58;;;;;;;0.30;0.20;;;25.60;71.00;;;;;;4900853;29;20055;-82
2022/06/15 12:55:33;;;;;;;0.00;0.00;;;25.30;70.70;;;;;;4899591;29;20052;-82
2022/06/15 12:58:17;;;;;;;0.00;0.00;;;25.10;71.10;;;;;;4899731;29;20468;-83
2022/06/15 13:00:50;;;;;;;0.10;0.10;;;24.90;71.30;;;;;;4880695;29;20051;-82
2022/06/15 13:03:37;;;;;;;0.10;0.10;;;24.80;73.00;;;;;;4865546;29;20045;-82
2022/06/15 13:06:22;;;;;;;0.10;0.00;;;24.90;73.50;;;;;;4885419;29;20044;-82
2022/06/15 13:09:14;;;;;;;0.22;0.22;;;25.00;73.00;;;;;;4894759;29;20071;-83
2022/06/15 13:12:17;;;;;;;0.25;0.25;;;25.50;73.40;;;;;;4883587;29;20399;-83
2022/06/15 13:14:43;;;;;;;0.20;0.20;;;26.80;70.50;;;;;;4875392;29;20053;-83
2022/06/15 13:17:16;;;;;;;0.52;0.52;;;27.90;71.00;;;;;;4880111;29;20040;-84
2022/06/15 13:20:04;;;;;;;0.13;0.10;;;28.40;65.90;;;;;;4864854;29;20064;-83
2022/06/15 13:22:32;;;;;;;0.90;0.75;;;29.00;67.10;;;;;;4880873;29;20059;-83
2022/06/15 13:25:08;;;;;;;0.20;0.20;;;29.30;65.60;;;;;;4898912;29;20055;-83
2022/06/15 13:28:02;;;;;;;0.10;0.10;;;29.20;65.70;;;;;;4896933;29;20057;-83
2022/06/15 13:30:31;;;;;;;0.10;0.10;;;29.40;66.80;;;;;;4878046;29;20391;-83
2022/06/15 13:32:59;;;;;;;0.10;0.10;;;29.70;64.60;;;;;;4899237;29;20052;-83
2022/06/15 13:35:38;;;;;;;0.30;0.30;;;29.30;66.70;;;;;;4888912;29;20044;-83
2022/06/15 13:38:22;;;;;;;0.20;0.20;;;28.50;65.00;;;;;;4876166;29;20096;-85